sensor_id;sensor_type;location;lat;lon;timestamp;temperature;humidity
44069;DHT22;29738;51.234;5.484;2023-04-25T10:50:23;9.90;99.90
44069;DHT22;29738;51.234;5.484;2023-04-25T10:53:13;10.10;99.90
44069;DHT22;29738;51.234;5.484;2023-04-25T10:55:49;10.60;99.90
44069;DHT22;29738;51.234;5.484;2023-04-25T10:58:18;11.10;99.90
44069;DHT22;29738;51.234;5.484;2023-04-25T11:00:49;11.50;99.90
44069;DHT22;29738;51.234;5.484;2023-04-25T11:03:15;11.80;99.90
44069;DHT22;29738;51.234;5.484;2023-04-25T11:05:41;11.90;99.90
44069;DHT22;29738;51.234;5.484;2023-04-25T11:08:11;11.70;99.90
44069;DHT22;29738;51.234;5.484;2023-04-25T11:10:37;11.30;99.90
44069;DHT22;29738;51.234;5.484;2023-04-25T11:13:05;11.10;99.90
44069;DHT22;29738;51.234;5.484;2023-04-25T11:15:31;11.30;99.90
44069;DHT22;29738;51.234;5.484;2023-04-25T11:17:56;11.30;99.90
44069;DHT22;29738;51.234;5.484;2023-04-25T11:20:25;11.60;99.90
44069;DHT22;29738;51.234;5.484;2023-04-25T11:22:51;12.00;99.90
44069;DHT22;29738;51.234;5.484;2023-04-25T11:25:16;11.60;99.90
44069;DHT22;29738;51.234;5.484;2023-04-25T11:30:17;11.10;99.90
44069;DHT22;29738;51.234;5.484;2023-04-25T11:32:43;11.30;99.90
44069;DHT22;29738;51.234;5.484;2023-04-25T11:35:09;11.20;99.90
44069;DHT22;29738;51.234;5.484;2023-04-25T11:37:34;11.30;99.90
44069;DHT22;29738;51.234;5.484;2023-04-25T11:40:00;11.10;99.90
44069;DHT22;29738;51.234;5.484;2023-04-25T11:42:26;10.70;99.90
44069;DHT22;29738;51.234;5.484;2023-04-25T11:44:52;10.80;99.90
44069;DHT22;29738;51.234;5.484;2023-04-25T11:47:17;11.00;99.90
44069;DHT22;29738;51.234;5.484;2023-04-25T11:49:43;11.10;99.90
44069;DHT22;29738;51.234;5.484;2023-04-25T11:52:08;11.20;99.90
44069;DHT22;29738;51.234;5.484;2023-04-25T11:54:37;11.20;99.90
44069;DHT22;29738;51.234;5.484;2023-04-25T11:57:03;11.20;99.90
44069;DHT22;29738;51.234;5.484;2023-04-25T11:59:29;11.40;99.90
44069;DHT22;29738;51.234;5.484;2023-04-25T12:01:55;11.40;99.90
44069;DHT22;29738;51.234;5.484;2023-04-25T12:04:24;11.30;99.90
44069;DHT22;29738;51.234;5.484;2023-04-25T12:06:50;11.40;99.90
44069;DHT22;29738;51.234;5.484;2023-04-25T12:09:17;11.20;99.90
44069;DHT22;29738;51.234;5.484;2023-04-25T12:11:53;11.10;99.90
44069;DHT22;29738;51.234;5.484;2023-04-25T12:14:24;11.10;99.90
44069;DHT22;29738;51.234;5.484;2023-04-25T12:16:50;10.80;99.90
44069;DHT22;29738;51.234;5.484;2023-04-25T12:19:19;11.00;99.90
44069;DHT22;29738;51.234;5.484;2023-04-25T12:21:45;11.40;99.90
44069;DHT22;29738;51.234;5.484;2023-04-25T12:26:47;11.80;99.90
44069;DHT22;29738;51.234;5.484;2023-04-25T12:29:20;11.90;99.90
44069;DHT22;29738;51.234;5.484;2023-04-25T12:31:46;11.90;99.90
44069;DHT22;29738;51.234;5.484;2023-04-25T12:34:12;11.70;99.90
44069;DHT22;29738;51.234;5.484;2023-04-25T12:36:37;11.70;99.90
44069;DHT22;29738;51.234;5.484;2023-04-25T12:39:04;11.40;99.90
44069;DHT22;29738;51.234;5.484;2023-04-25T12:41:29;11.40;99.90
44069;DHT22;29738;51.234;5.484;2023-04-25T12:43:55;11.60;99.90
44069;DHT22;29738;51.234;5.484;2023-04-25T12:46:21;11.30;99.90
44069;DHT22;29738;51.234;5.484;2023-04-25T12:48:48;10.80;99.90
44069;DHT22;29738;51.234;5.484;2023-04-25T12:51:13;10.60;99.90
44069;DHT22;29738;51.234;5.484;2023-04-25T12:53:39;10.50;99.90
44069;DHT22;29738;51.234;5.484;2023-04-25T12:56:06;10.60;99.90
44069;DHT22;29738;51.234;5.484;2023-04-25T12:58:32;10.70;99.90
44069;DHT22;29738;51.234;5.484;2023-04-25T13:00:58;10.50;99.90
44069;DHT22;29738;51.234;5.484;2023-04-25T13:03:24;10.60;99.90
44069;DHT22;29738;51.234;5.484;2023-04-25T13:05:50;10.80;99.90
44069;DHT22;29738;51.234;5.484;2023-04-25T13:08:18;11.00;99.90
44069;DHT22;29738;51.234;5.484;2023-04-25T13:10:43;11.00;99.90
44069;DHT22;29738;51.234;5.484;2023-04-25T13:13:09;11.00;99.90
44069;DHT22;29738;51.234;5.484;2023-04-25T13:15:34;11.00;99.90
44069;DHT22;29738;51.234;5.484;2023-04-25T13:18:00;11.00;99.90
44069;DHT22;29738;51.234;5.484;2023-04-25T13:20:27;11.10;99.90
44069;DHT22;29738;51.234;5.484;2023-04-25T13:22:52;11.40;99.90
44069;DHT22;29738;51.234;5.484;2023-04-25T13:25:18;11.60;99.90
44069;DHT22;29738;51.234;5.484;2023-04-25T13:27:44;11.50;99.90
44069;DHT22;29738;51.234;5.484;2023-04-25T13:30:10;11.80;99.90
44069;DHT22;29738;51.234;5.484;2023-04-25T13:32:36;12.00;99.90
44069;DHT22;29738;51.234;5.484;2023-04-25T13:35:05;11.80;99.90
44069;DHT22;29738;51.234;5.484;2023-04-25T13:37:31;12.20;99.90
44069;DHT22;29738;51.234;5.484;2023-04-25T13:40:06;12.50;99.90
44069;DHT22;29738;51.234;5.484;2023-04-25T13:42:38;13.00;99.90
44069;DHT22;29738;51.234;5.484;2023-04-25T13:45:04;12.70;99.90
44069;DHT22;29738;51.234;5.484;2023-04-25T13:47:29;11.90;99.90
44069;DHT22;29738;51.234;5.484;2023-04-25T13:49:55;11.90;99.90
44069;DHT22;29738;51.234;5.484;2023-04-25T13:52:21;11.60;99.90
44069;DHT22;29738;51.234;5.484;2023-04-25T13:54:49;10.90;99.90
44069;DHT22;29738;51.234;5.484;2023-04-25T13:57:15;10.80;99.90
44069;DHT22;29738;51.234;5.484;2023-04-25T13:59:41;11.10;99.90
44069;DHT22;29738;51.234;5.484;2023-04-25T14:02:07;11.30;99.90
44069;DHT22;29738;51.234;5.484;2023-04-25T14:04:32;11.50;99.90
44069;DHT22;29738;51.234;5.484;2023-04-25T14:06:58;11.70;99.90
44069;DHT22;29738;51.234;5.484;2023-04-25T14:09:24;11.50;99.90
44069;DHT22;29738;51.234;5.484;2023-04-25T14:11:51;11.20;99.90
44069;DHT22;29738;51.234;5.484;2023-04-25T14:14:17;10.90;99.90
44069;DHT22;29738;51.234;5.484;2023-04-25T14:16:43;10.80;99.90
44069;DHT22;29738;51.234;5.484;2023-04-25T14:19:09;11.10;99.90
44069;DHT22;29738;51.234;5.484;2023-04-25T14:21:34;11.20;99.90
44069;DHT22;29738;51.234;5.484;2023-04-25T14:24:00;11.40;99.90
44069;DHT22;29738;51.234;5.484;2023-04-25T14:26:26;11.50;99.90
44069;DHT22;29738;51.234;5.484;2023-04-25T14:28:51;11.40;99.90
44069;DHT22;29738;51.234;5.484;2023-04-25T14:31:17;11.60;99.90
44069;DHT22;29738;51.234;5.484;2023-04-25T14:33:43;11.90;99.90
44069;DHT22;29738;51.234;5.484;2023-04-25T14:36:09;12.00;99.90
44069;DHT22;29738;51.234;5.484;2023-04-25T14:38:34;12.00;99.90
44069;DHT22;29738;51.234;5.484;2023-04-25T14:41:00;11.70;99.90
44069;DHT22;29738;51.234;5.484;2023-04-25T14:43:25;11.40;99.90
44069;DHT22;29738;51.234;5.484;2023-04-25T14:45:51;11.20;99.90
44069;DHT22;29738;51.234;5.484;2023-04-25T14:48:17;10.90;99.90
44069;DHT22;29738;51.234;5.484;2023-04-25T14:50:44;11.00;99.90
44069;DHT22;29738;51.234;5.484;2023-04-25T14:53:10;11.00;99.90
44069;DHT22;29738;51.234;5.484;2023-04-25T14:55:36;10.60;99.90
44069;DHT22;29738;51.234;5.484;2023-04-25T14:58:01;10.50;99.90
44069;DHT22;29738;51.234;5.484;2023-04-25T15:00:27;10.70;99.90
44069;DHT22;29738;51.234;5.484;2023-04-25T15:02:52;11.50;99.90
44069;DHT22;29738;51.234;5.484;2023-04-25T15:05:18;11.90;99.90
44069;DHT22;29738;51.234;5.484;2023-04-25T15:07:44;12.30;99.90
44069;DHT22;29738;51.234;5.484;2023-04-25T15:10:10;12.70;99.90
44069;DHT22;29738;51.234;5.484;2023-04-25T15:12:47;12.50;99.90
44069;DHT22;29738;51.234;5.484;2023-04-25T15:15:13;12.10;99.90
44069;DHT22;29738;51.234;5.484;2023-04-25T15:17:40;12.30;99.90
44069;DHT22;29738;51.234;5.484;2023-04-25T15:20:06;12.80;99.90
44069;DHT22;29738;51.234;5.484;2023-04-25T15:22:32;12.50;99.90
44069;DHT22;29738;51.234;5.484;2023-04-25T15:24:58;12.70;99.90
44069;DHT22;29738;51.234;5.484;2023-04-25T15:27:24;12.70;99.90
44069;DHT22;29738;51.234;5.484;2023-04-25T15:29:49;13.20;99.90
44069;DHT22;29738;51.234;5.484;2023-04-25T15:32:15;13.50;99.90
44069;DHT22;29738;51.234;5.484;2023-04-25T15:34:40;13.60;99.90
44069;DHT22;29738;51.234;5.484;2023-04-25T15:37:06;13.40;99.90
44069;DHT22;29738;51.234;5.484;2023-04-25T15:39:31;13.10;99.90
44069;DHT22;29738;51.234;5.484;2023-04-25T15:41:57;12.90;99.90
44069;DHT22;29738;51.234;5.484;2023-04-25T15:44:23;12.70;99.90
44069;DHT22;29738;51.234;5.484;2023-04-25T15:46:49;12.50;99.90
44069;DHT22;29738;51.234;5.484;2023-04-25T15:49:15;12.30;99.90
44069;DHT22;29738;51.234;5.484;2023-04-25T15:51:40;11.80;99.90
44069;DHT22;29738;51.234;5.484;2023-04-25T15:54:06;11.50;99.90
44069;DHT22;29738;51.234;5.484;2023-04-25T15:56:32;11.20;99.90
44069;DHT22;29738;51.234;5.484;2023-04-25T15:59:00;11.10;99.90
44069;DHT22;29738;51.234;5.484;2023-04-25T16:01:27;11.40;99.90
44069;DHT22;29738;51.234;5.484;2023-04-25T16:03:55;11.40;99.90
44069;DHT22;29738;51.234;5.484;2023-04-25T16:06:22;11.70;99.90
44069;DHT22;29738;51.234;5.484;2023-04-25T16:08:48;11.60;99.90
44069;DHT22;29738;51.234;5.484;2023-04-25T16:11:14;11.90;99.90
44069;DHT22;29738;51.234;5.484;2023-04-25T16:13:39;11.80;99.90
44069;DHT22;29738;51.234;5.484;2023-04-25T16:16:05;11.70;99.90
44069;DHT22;29738;51.234;5.484;2023-04-25T16:18:31;11.60;99.80
44069;DHT22;29738;51.234;5.484;2023-04-25T16:20:57;11.60;99.90
44069;DHT22;29738;51.234;5.484;2023-04-25T16:23:22;11.80;99.90
44069;DHT22;29738;51.234;5.484;2023-04-25T16:25:48;11.80;99.90
44069;DHT22;29738;51.234;5.484;2023-04-25T16:28:15;11.80;99.90
44069;DHT22;29738;51.234;5.484;2023-04-25T16:30:40;11.90;99.90
44069;DHT22;29738;51.234;5.484;2023-04-25T16:33:06;12.00;99.90
44069;DHT22;29738;51.234;5.484;2023-04-25T16:35:32;12.10;99.90
44069;DHT22;29738;51.234;5.484;2023-04-25T16:37:58;12.10;99.90
44069;DHT22;29738;51.234;5.484;2023-04-25T16:40:24;11.70;99.90
44069;DHT22;29738;51.234;5.484;2023-04-25T16:42:49;11.20;99.90
44069;DHT22;29738;51.234;5.484;2023-04-25T20:32:54;7.00;99.90
44069;DHT22;29738;51.234;5.484;2023-04-25T20:35:20;7.00;99.90
44069;DHT22;29738;51.234;5.484;2023-04-25T20:37:47;6.80;99.90
44069;DHT22;29738;51.234;5.484;2023-04-25T20:40:13;6.80;99.90
44069;DHT22;29738;51.234;5.484;2023-04-25T20:42:39;6.80;99.90
44069;DHT22;29738;51.234;5.484;2023-04-25T20:45:04;6.70;99.90
44069;DHT22;29738;51.234;5.484;2023-04-25T20:47:32;6.60;99.90
44069;DHT22;29738;51.234;5.484;2023-04-25T20:49:58;6.70;99.90
44069;DHT22;29738;51.234;5.484;2023-04-25T20:52:24;6.50;99.90
44069;DHT22;29738;51.234;5.484;2023-04-25T20:54:49;6.40;99.90
44069;DHT22;29738;51.234;5.484;2023-04-25T20:57:16;6.50;99.90
44069;DHT22;29738;51.234;5.484;2023-04-25T20:59:42;6.30;99.90
44069;DHT22;29738;51.234;5.484;2023-04-25T21:02:09;6.30;99.90
44069;DHT22;29738;51.234;5.484;2023-04-25T21:04:36;6.30;99.90
44069;DHT22;29738;51.234;5.484;2023-04-25T21:07:01;6.30;99.90
44069;DHT22;29738;51.234;5.484;2023-04-25T21:09:27;6.20;99.90
44069;DHT22;29738;51.234;5.484;2023-04-25T21:11:53;6.30;99.90
44069;DHT22;29738;51.234;5.484;2023-04-25T21:14:18;6.30;99.90
44069;DHT22;29738;51.234;5.484;2023-04-25T21:16:44;6.30;99.90
44069;DHT22;29738;51.234;5.484;2023-04-25T21:19:10;6.40;99.90
44069;DHT22;29738;51.234;5.484;2023-04-25T21:21:35;6.30;99.90
44069;DHT22;29738;51.234;5.484;2023-04-25T21:24:01;6.20;99.90
44069;DHT22;29738;51.234;5.484;2023-04-25T21:26:27;6.30;99.90
44069;DHT22;29738;51.234;5.484;2023-04-25T21:28:53;6.30;99.90
44069;DHT22;29738;51.234;5.484;2023-04-25T21:31:18;6.30;99.90
44069;DHT22;29738;51.234;5.484;2023-04-25T21:33:44;6.40;99.90
44069;DHT22;29738;51.234;5.484;2023-04-25T21:36:10;6.40;99.90
44069;DHT22;29738;51.234;5.484;2023-04-25T21:38:35;6.50;99.90
44069;DHT22;29738;51.234;5.484;2023-04-25T21:41:01;6.50;99.90
44069;DHT22;29738;51.234;5.484;2023-04-25T21:43:26;6.60;99.90
44069;DHT22;29738;51.234;5.484;2023-04-25T21:45:52;6.60;99.90
44069;DHT22;29738;51.234;5.484;2023-04-25T21:48:19;6.50;99.90
44069;DHT22;29738;51.234;5.484;2023-04-25T21:50:45;6.50;99.90
44069;DHT22;29738;51.234;5.484;2023-04-25T21:53:11;6.30;99.90
44069;DHT22;29738;51.234;5.484;2023-04-25T21:55:36;6.60;99.90
44069;DHT22;29738;51.234;5.484;2023-04-25T21:58:02;6.60;99.90
44069;DHT22;29738;51.234;5.484;2023-04-25T22:00:28;6.70;99.90
44069;DHT22;29738;51.234;5.484;2023-04-25T22:02:56;6.20;99.90
44069;DHT22;29738;51.234;5.484;2023-04-25T22:05:22;6.20;99.90
44069;DHT22;29738;51.234;5.484;2023-04-25T22:07:48;6.40;99.90
44069;DHT22;29738;51.234;5.484;2023-04-25T22:10:14;6.00;99.90
44069;DHT22;29738;51.234;5.484;2023-04-25T22:12:40;5.60;99.90
44069;DHT22;29738;51.234;5.484;2023-04-25T22:15:06;5.70;99.90
44069;DHT22;29738;51.234;5.484;2023-04-25T22:17:33;6.00;99.90
44069;DHT22;29738;51.234;5.484;2023-04-25T22:19:59;5.90;99.90
44069;DHT22;29738;51.234;5.484;2023-04-25T22:22:25;5.90;99.90
44069;DHT22;29738;51.234;5.484;2023-04-25T22:24:50;5.70;99.90
44069;DHT22;29738;51.234;5.484;2023-04-25T22:27:16;5.70;99.90
44069;DHT22;29738;51.234;5.484;2023-04-25T22:29:42;5.60;99.90
44069;DHT22;29738;51.234;5.484;2023-04-25T22:32:08;5.70;99.90
44069;DHT22;29738;51.234;5.484;2023-04-25T22:34:33;5.70;99.90
44069;DHT22;29738;51.234;5.484;2023-04-25T22:36:59;5.80;99.90
44069;DHT22;29738;51.234;5.484;2023-04-25T22:39:24;5.60;99.90
44069;DHT22;29738;51.234;5.484;2023-04-25T22:41:50;5.50;99.90
44069;DHT22;29738;51.234;5.484;2023-04-25T22:44:16;5.50;99.90
44069;DHT22;29738;51.234;5.484;2023-04-25T22:46:42;5.30;99.90
44069;DHT22;29738;51.234;5.484;2023-04-25T22:49:08;5.30;99.90
44069;DHT22;29738;51.234;5.484;2023-04-25T22:51:33;5.10;99.90
44069;DHT22;29738;51.234;5.484;2023-04-25T22:53:59;5.00;99.90
44069;DHT22;29738;51.234;5.484;2023-04-25T22:56:27;5.00;99.90
44069;DHT22;29738;51.234;5.484;2023-04-25T22:58:53;5.10;99.90
44069;DHT22;29738;51.234;5.484;2023-04-25T23:01:19;5.10;99.90
44069;DHT22;29738;51.234;5.484;2023-04-25T23:03:45;5.20;99.90
44069;DHT22;29738;51.234;5.484;2023-04-25T23:06:10;5.30;99.90
44069;DHT22;29738;51.234;5.484;2023-04-25T23:08:37;5.20;99.90
44069;DHT22;29738;51.234;5.484;2023-04-25T23:11:06;5.30;99.90
44069;DHT22;29738;51.234;5.484;2023-04-25T23:13:32;5.20;99.90
44069;DHT22;29738;51.234;5.484;2023-04-25T23:16:07;5.20;99.90
44069;DHT22;29738;51.234;5.484;2023-04-25T23:18:37;4.90;99.90
44069;DHT22;29738;51.234;5.484;2023-04-25T23:21:03;4.90;99.90
44069;DHT22;29738;51.234;5.484;2023-04-25T23:23:31;4.80;99.90
44069;DHT22;29738;51.234;5.484;2023-04-25T23:25:57;4.70;99.90
44069;DHT22;29738;51.234;5.484;2023-04-25T23:28:22;4.70;99.90
44069;DHT22;29738;51.234;5.484;2023-04-25T23:30:48;4.70;99.90
44069;DHT22;29738;51.234;5.484;2023-04-25T23:33:14;4.60;99.90
44069;DHT22;29738;51.234;5.484;2023-04-25T23:35:40;4.50;99.90
44069;DHT22;29738;51.234;5.484;2023-04-25T23:38:06;4.50;99.90
44069;DHT22;29738;51.234;5.484;2023-04-25T23:40:31;4.40;99.90
44069;DHT22;29738;51.234;5.484;2023-04-25T23:42:57;4.50;99.90
44069;DHT22;29738;51.234;5.484;2023-04-25T23:45:22;4.40;99.90
44069;DHT22;29738;51.234;5.484;2023-04-25T23:47:48;4.20;99.90
44069;DHT22;29738;51.234;5.484;2023-04-25T23:50:14;4.00;99.90
44069;DHT22;29738;51.234;5.484;2023-04-25T23:52:39;4.10;99.90
44069;DHT22;29738;51.234;5.484;2023-04-25T23:55:05;4.00;99.90
44069;DHT22;29738;51.234;5.484;2023-04-25T23:57:31;4.10;99.90
44069;DHT22;29738;51.234;5.484;2023-04-25T23:59:57;4.00;99.90
